createdAt,value
2018-12-20T00:00:45.916Z,99579.60
2018-12-20T00:03:14.291Z,99577.22
2018-12-20T00:05:42.682Z,99578.20
2018-12-20T00:08:11.317Z,99575.02
2018-12-20T00:10:39.884Z,99573.63
2018-12-20T00:13:09.025Z,99573.02
2018-12-20T00:15:37.428Z,99570.33
2018-12-20T00:18:06.343Z,99571.73
2018-12-20T00:20:34.801Z,99574.87
2018-12-20T00:23:03.375Z,99573.99
2018-12-20T00:25:31.883Z,99571.88
2018-12-20T00:28:00.339Z,99569.10
2018-12-20T00:30:28.887Z,99570.37
2018-12-20T00:32:57.432Z,99559.80
2018-12-20T00:35:25.824Z,99560.56
2018-12-20T00:37:54.402Z,99565.63
2018-12-20T00:40:22.803Z,99570.42
2018-12-20T00:42:51.296Z,99570.08
2018-12-20T00:45:19.758Z,99570.94
2018-12-20T00:47:48.188Z,99565.56
2018-12-20T00:50:16.571Z,99566.05
2018-12-20T00:52:45.113Z,99565.34
2018-12-20T00:55:13.715Z,99562.88
2018-12-20T00:57:42.183Z,99562.22
2018-12-20T01:00:11.878Z,99571.05
2018-12-20T01:02:40.537Z,99572.52
2018-12-20T01:05:09.056Z,99578.23
2018-12-20T01:07:37.537Z,99578.95
2018-12-20T01:10:06.447Z,99580.36
2018-12-20T01:12:34.887Z,99577.16
2018-12-20T01:15:03.470Z,99583.88
2018-12-20T01:17:37.263Z,99580.77
2018-12-20T01:20:06.335Z,99581.07
2018-12-20T01:22:34.832Z,99593.69
2018-12-20T01:25:03.587Z,99580.73
2018-12-20T01:27:32.555Z,99586.14
2018-12-20T01:30:01.067Z,99593.04
2018-12-20T01:32:29.567Z,99595.03
2018-12-20T01:34:57.932Z,99601.42
2018-12-20T01:37:26.345Z,99605.69
2018-12-20T01:39:55.008Z,99606.64
2018-12-20T01:42:23.455Z,99609.91
2018-12-20T01:44:53.585Z,99615.56
2018-12-20T01:47:22.839Z,99608.08
2018-12-20T01:49:51.371Z,99604.66
2018-12-20T01:52:20.300Z,99595.70
2018-12-20T01:54:48.755Z,99600.07
2018-12-20T01:57:17.661Z,99597.69
2018-12-20T01:59:46.123Z,99600.52
2018-12-20T02:02:14.721Z,99595.94
2018-12-20T02:04:43.191Z,99598.69
2018-12-20T02:07:11.739Z,99585.62
2018-12-20T02:09:40.344Z,99581.50
2018-12-20T02:12:08.837Z,99577.22
2018-12-20T02:14:37.317Z,99577.22
2018-12-20T02:17:05.830Z,99576.75
2018-12-20T02:19:34.331Z,99569.25
2018-12-20T02:22:02.810Z,99560.33
2018-12-20T02:24:31.384Z,99556.92
2018-12-20T02:26:59.805Z,99560.14
2018-12-20T02:29:28.544Z,99557.25
2018-12-20T02:31:59.511Z,99544.67
2018-12-20T02:34:28.033Z,99548.56
2018-12-20T02:36:56.672Z,99546.30
2018-12-20T02:39:25.103Z,99546.82
2018-12-20T02:41:53.628Z,99539.94
2018-12-20T02:44:22.255Z,99532.64
2018-12-20T02:46:50.735Z,99533.36
2018-12-20T02:49:19.346Z,99530.91
2018-12-20T02:51:47.927Z,99526.77
2018-12-20T02:54:16.341Z,99529.00
2018-12-20T02:56:44.762Z,99527.55
2018-12-20T02:59:13.167Z,99521.69
2018-12-20T03:01:41.756Z,99526.83
2018-12-20T03:04:10.380Z,99521.29
2018-12-20T03:06:39.571Z,99528.39
2018-12-20T03:09:09.041Z,99525.38
2018-12-20T03:11:37.471Z,99521.25
2018-12-20T03:14:06.283Z,99520.09
2018-12-20T03:16:35.228Z,99517.38
2018-12-20T03:19:04.073Z,99512.82
2018-12-20T03:21:32.859Z,99508.87
2018-12-20T03:24:01.321Z,99506.97
2018-12-20T03:26:29.791Z,99501.88
2018-12-20T03:28:58.459Z,99500.52
2018-12-20T03:31:27.254Z,99497.17
2018-12-20T03:33:55.703Z,99492.14
2018-12-20T03:36:24.125Z,99495.12
2018-12-20T03:38:52.747Z,99498.34
2018-12-20T03:41:21.361Z,99491.16
2018-12-20T03:43:50.005Z,99489.23
2018-12-20T03:46:18.445Z,99488.58
2018-12-20T03:48:46.953Z,99485.54
2018-12-20T03:51:15.655Z,99480.97
2018-12-20T03:53:44.860Z,99491.59
2018-12-20T03:56:13.365Z,99487.28
2018-12-20T03:58:42.130Z,99480.81
2018-12-20T04:01:10.516Z,99497.48
2018-12-20T04:03:38.958Z,99503.72
2018-12-20T04:06:07.412Z,99504.42
2018-12-20T04:08:35.871Z,99507.16
2018-12-20T04:11:04.351Z,99502.73
2018-12-20T04:13:32.735Z,99506.50
2018-12-20T04:16:02.160Z,99500.50
2018-12-20T04:18:30.957Z,99496.36
2018-12-20T04:20:59.566Z,99508.63
2018-12-20T04:23:28.066Z,99506.38
2018-12-20T04:25:56.492Z,99505.20
2018-12-20T04:28:32.685Z,99503.33
2018-12-20T04:31:01.376Z,99502.61
2018-12-20T04:33:30.148Z,99506.38
2018-12-20T04:35:58.611Z,99508.21
2018-12-20T04:38:27.100Z,99511.89
2018-12-20T04:40:55.512Z,99510.66
2018-12-20T04:43:24.047Z,99510.61
2018-12-20T04:45:52.526Z,99514.03
2018-12-20T04:48:22.603Z,99514.70
2018-12-20T04:50:51.038Z,99524.66
2018-12-20T04:53:19.655Z,99527.19
2018-12-20T04:55:48.286Z,99530.34
2018-12-20T04:58:16.706Z,99527.85
2018-12-20T05:00:45.329Z,99525.18
2018-12-20T05:03:13.847Z,99526.47
2018-12-20T05:05:42.319Z,99531.28
2018-12-20T05:08:10.912Z,99528.48
2018-12-20T05:10:39.569Z,99533.16
2018-12-20T05:13:08.054Z,99528.59
2018-12-20T05:15:36.459Z,99527.14
2018-12-20T05:18:04.989Z,99538.13
2018-12-20T05:20:33.646Z,99534.19
2018-12-20T05:23:02.139Z,99534.35
2018-12-20T05:25:30.591Z,99526.47
2018-12-20T05:27:59.006Z,99534.59
2018-12-20T05:30:27.419Z,99523.52
2018-12-20T05:32:55.812Z,99526.78
2018-12-20T05:35:24.291Z,99527.23
2018-12-20T05:37:52.709Z,99519.33
2018-12-20T05:40:21.321Z,99518.96
2018-12-20T05:42:50.076Z,99524.05
2018-12-20T05:45:18.625Z,99524.14
2018-12-20T05:47:47.218Z,99528.53
2018-12-20T05:50:15.672Z,99518.95
2018-12-20T05:52:44.051Z,99526.83
2018-12-20T05:55:12.732Z,99523.47
2018-12-20T05:57:41.131Z,99517.71
2018-12-20T06:00:10.454Z,99519.41
2018-12-20T06:02:40.057Z,99515.41
2018-12-20T06:05:08.771Z,99520.23
2018-12-20T06:07:37.355Z,99521.64
2018-12-20T06:10:05.954Z,99521.59
2018-12-20T06:12:34.512Z,99527.77
2018-12-20T06:15:03.701Z,99535.89
2018-12-20T06:17:32.313Z,99526.41
2018-12-20T06:20:00.755Z,99533.09
2018-12-20T06:22:29.138Z,99530.09
2018-12-20T06:24:57.531Z,99537.86
2018-12-20T06:27:25.884Z,99538.59
2018-12-20T06:29:54.268Z,99543.87
2018-12-20T06:32:22.631Z,99545.02
2018-12-20T06:34:51.007Z,99548.48
2018-12-20T06:37:19.390Z,99546.73
2018-12-20T06:39:47.772Z,99558.02
2018-12-20T06:42:16.176Z,99547.91
2018-12-20T06:44:44.620Z,99554.28
2018-12-20T06:47:13.639Z,99555.73
2018-12-20T06:49:42.104Z,99552.06
2018-12-20T06:52:10.471Z,99557.95
2018-12-20T06:54:38.873Z,99559.31
2018-12-20T06:57:07.237Z,99565.31
2018-12-20T06:59:35.702Z,99566.50
2018-12-20T07:02:04.071Z,99564.86
2018-12-20T07:04:32.452Z,99564.61
2018-12-20T07:07:00.808Z,99562.06
2018-12-20T07:09:29.208Z,99560.68
2018-12-20T07:11:57.564Z,99562.59
2018-12-20T07:14:25.948Z,99561.69
2018-12-20T07:16:54.354Z,99561.69
2018-12-20T07:19:22.751Z,99564.14
2018-12-20T07:21:51.219Z,99568.03
2018-12-20T07:24:19.591Z,99566.48
2018-12-20T07:26:47.989Z,99574.66
2018-12-20T07:29:16.366Z,99570.97
2018-12-20T07:31:44.770Z,99577.66
2018-12-20T07:34:13.459Z,99581.92
2018-12-20T07:36:42.317Z,99585.91
2018-12-20T07:39:10.754Z,99580.05
2018-12-20T07:41:39.115Z,99585.34
2018-12-20T07:44:07.495Z,99588.91
2018-12-20T07:46:53.285Z,99585.39
2018-12-20T07:49:21.779Z,99584.91
2018-12-20T07:51:50.149Z,99601.64
2018-12-20T07:54:18.608Z,99601.34
2018-12-20T07:56:47.064Z,99601.02
2018-12-20T07:59:23.365Z,99596.45
2018-12-20T08:01:45.900Z,99598.59
2018-12-20T08:04:14.436Z,99598.43
2018-12-20T08:06:42.811Z,99594.55
2018-12-20T08:09:11.198Z,99601.06
2018-12-20T08:11:39.568Z,99607.03
2018-12-20T08:14:07.986Z,99598.70
2018-12-20T08:16:36.377Z,99607.16
2018-12-20T08:19:04.889Z,99608.53
2018-12-20T08:21:33.251Z,99619.03
2018-12-20T08:24:01.643Z,99612.78
2018-12-20T08:26:30.049Z,99613.36
2018-12-20T08:28:58.459Z,99609.89
2018-12-20T08:31:26.855Z,99609.58
2018-12-20T08:33:55.242Z,99611.81
2018-12-20T08:36:23.672Z,99617.97
2018-12-20T08:38:52.228Z,99623.59
2018-12-20T08:41:20.603Z,99618.45
2018-12-20T08:43:48.979Z,99625.19
2018-12-20T08:46:17.388Z,99621.56
2018-12-20T08:48:45.773Z,99625.66
2018-12-20T08:51:14.143Z,99629.59
2018-12-20T08:53:42.502Z,99636.44
2018-12-20T08:56:10.879Z,99628.36
2018-12-20T08:58:39.445Z,99645.81
2018-12-20T09:01:07.831Z,99647.78
2018-12-20T09:03:36.219Z,99647.47
2018-12-20T09:06:04.631Z,99653.92
2018-12-20T09:08:32.996Z,99654.95
2018-12-20T09:11:01.387Z,99652.31
2018-12-20T09:13:29.781Z,99656.45
2018-12-20T09:15:58.180Z,99660.86
2018-12-20T09:18:26.616Z,99667.74
2018-12-20T09:20:55.017Z,99666.71
2018-12-20T09:23:23.396Z,99662.80
2018-12-20T09:25:51.827Z,99658.17
2018-12-20T09:28:20.190Z,99656.48
2018-12-20T09:30:48.571Z,99658.84
2018-12-20T09:33:16.933Z,99657.66
2018-12-20T09:35:45.414Z,99660.66
2018-12-20T09:38:13.852Z,99662.02
2018-12-20T09:40:42.245Z,99664.41
2018-12-20T09:43:10.603Z,99656.83
2018-12-20T09:45:39.029Z,99658.96
2018-12-20T09:48:07.469Z,99663.09
2018-12-20T09:50:35.876Z,99664.75
2018-12-20T09:53:04.628Z,99662.39
2018-12-20T09:55:33.048Z,99668.97
2018-12-20T09:58:01.410Z,99663.83
2018-12-20T10:00:29.785Z,99669.61
2018-12-20T10:02:58.170Z,99662.63
2018-12-20T10:05:26.562Z,99661.39
2018-12-20T10:07:55.100Z,99665.00
2018-12-20T10:10:23.488Z,99666.91
2018-12-20T10:12:51.853Z,99659.37
2018-12-20T10:15:20.279Z,99663.72
2018-12-20T10:17:49.455Z,99665.63
2018-12-20T10:20:17.823Z,99660.30
2018-12-20T10:22:46.185Z,99657.30
2018-12-20T10:25:14.791Z,99650.84
2018-12-20T10:27:43.216Z,99655.53
2018-12-20T10:30:11.715Z,99651.55
2018-12-20T10:32:40.112Z,99655.90
2018-12-20T10:35:08.582Z,99663.05
2018-12-20T10:37:36.979Z,99660.09
2018-12-20T10:40:05.961Z,99657.84
2018-12-20T10:42:34.372Z,99661.48
2018-12-20T10:45:02.820Z,99652.22
2018-12-20T10:47:31.216Z,99658.31
2018-12-20T10:49:59.608Z,99663.63
2018-12-20T10:52:28.111Z,99668.75
2018-12-20T10:54:56.496Z,99662.89
2018-12-20T10:57:24.937Z,99672.16
2018-12-20T10:59:53.519Z,99667.00
2018-12-20T11:02:27.269Z,99670.29
2018-12-20T11:05:06.809Z,99673.16
2018-12-20T11:07:40.498Z,99660.95
2018-12-20T11:10:15.130Z,99667.09
2018-12-20T11:12:48.887Z,99667.04
2018-12-20T11:15:17.711Z,99665.66
2018-12-20T11:17:46.189Z,99665.61
2018-12-20T11:20:14.696Z,99665.06
2018-12-20T11:22:43.195Z,99651.79
2018-12-20T11:25:11.807Z,99649.38
2018-12-20T11:27:40.180Z,99644.16
2018-12-20T11:30:10.512Z,99655.30
2018-12-20T11:32:38.967Z,99646.93
2018-12-20T11:35:08.268Z,99646.16
2018-12-20T11:37:37.374Z,99640.14
2018-12-20T11:40:06.927Z,99640.65
2018-12-20T11:42:35.315Z,99642.03
2018-12-20T11:45:03.807Z,99646.42
2018-12-20T11:47:32.218Z,99642.37
2018-12-20T11:50:00.601Z,99641.06
2018-12-20T11:52:28.977Z,99640.00
2018-12-20T11:54:57.355Z,99642.23
2018-12-20T11:57:25.783Z,99647.12
2018-12-20T11:59:54.163Z,99648.45
2018-12-20T12:02:24.577Z,99647.91
2018-12-20T12:04:52.939Z,99651.20
2018-12-20T12:07:21.457Z,99648.20
2018-12-20T12:09:49.960Z,99642.48
2018-12-20T12:12:18.514Z,99644.63
2018-12-20T12:14:46.892Z,99644.91
2018-12-20T12:17:15.307Z,99647.29
2018-12-20T12:19:43.692Z,99652.87
2018-12-20T12:22:12.155Z,99649.27
2018-12-20T12:24:40.551Z,99640.11
2018-12-20T12:27:08.926Z,99647.42
2018-12-20T12:29:37.351Z,99647.34
2018-12-20T12:32:05.711Z,99653.51
2018-12-20T12:34:34.238Z,99649.73
2018-12-20T12:37:02.631Z,99647.27
2018-12-20T12:39:31.058Z,99641.35
2018-12-20T12:41:59.462Z,99639.39
2018-12-20T12:44:27.839Z,99632.84
2018-12-20T12:46:56.217Z,99621.76
2018-12-20T12:49:24.611Z,99620.23
2018-12-20T12:51:53.549Z,99619.09
2018-12-20T12:54:22.131Z,99621.21
2018-12-20T12:56:50.499Z,99611.63
2018-12-20T12:59:18.907Z,99624.59
2018-12-20T13:01:47.271Z,99625.18
2018-12-20T13:04:15.659Z,99619.98
2018-12-20T13:06:44.062Z,99634.14
2018-12-20T13:09:12.476Z,99630.38
2018-12-20T13:11:40.849Z,99629.11
2018-12-20T13:14:09.239Z,99621.10
2018-12-20T13:16:37.623Z,99620.58
2018-12-20T13:19:06.114Z,99617.84
2018-12-20T13:21:34.575Z,99617.79
2018-12-20T13:24:03.154Z,99617.84
2018-12-20T13:26:31.513Z,99632.95
2018-12-20T13:28:59.902Z,99635.66
2018-12-20T13:31:28.265Z,99637.58
2018-12-20T13:33:56.636Z,99635.11
2018-12-20T13:36:25.039Z,99641.89
2018-12-20T13:38:53.432Z,99638.34
2018-12-20T13:41:21.810Z,99638.63
2018-12-20T13:43:50.195Z,99645.92
2018-12-20T13:46:18.612Z,99645.13
2018-12-20T13:48:46.963Z,99645.95
2018-12-20T13:51:15.383Z,99651.34
2018-12-20T13:53:43.937Z,99649.80
2018-12-20T13:56:12.349Z,99654.87
2018-12-20T13:58:40.707Z,99647.52
2018-12-20T14:01:09.084Z,99654.34
2018-12-20T14:03:37.440Z,99658.66
2018-12-20T14:06:05.823Z,99652.16
2018-12-20T14:08:34.259Z,99650.80
2018-12-20T14:11:02.808Z,99658.05
2018-12-20T14:13:31.163Z,99663.22
2018-12-20T14:15:59.555Z,99661.02
2018-12-20T14:18:31.143Z,99663.52
2018-12-20T14:20:58.454Z,99669.13
2018-12-20T14:23:26.837Z,99667.78
2018-12-20T14:25:55.300Z,99667.19
2018-12-20T14:28:23.684Z,99664.22
2018-12-20T14:30:52.070Z,99659.08
2018-12-20T14:33:20.456Z,99658.72
2018-12-20T14:35:48.857Z,99658.69
2018-12-20T14:38:17.232Z,99657.11
2018-12-20T14:40:45.606Z,99661.59
2018-12-20T14:43:13.984Z,99659.13
2018-12-20T14:45:42.377Z,99670.80
2018-12-20T14:48:12.756Z,99662.45
2018-12-20T14:50:41.140Z,99664.04
2018-12-20T14:53:09.527Z,99664.04
2018-12-20T14:55:37.907Z,99663.25
2018-12-20T14:58:06.288Z,99661.00
2018-12-20T15:00:34.719Z,99660.77
2018-12-20T15:03:03.111Z,99651.25
2018-12-20T15:05:31.483Z,99648.77
2018-12-20T15:07:59.864Z,99648.19
2018-12-20T15:10:28.303Z,99654.05
2018-12-20T15:12:56.719Z,99652.14
2018-12-20T15:15:25.162Z,99650.27
2018-12-20T15:17:53.642Z,99650.49
2018-12-20T15:20:22.040Z,99649.83
2018-12-20T15:22:50.421Z,99647.55
2018-12-20T15:25:18.902Z,99649.91
2018-12-20T15:27:47.315Z,99652.91
2018-12-20T15:30:15.728Z,99662.11
2018-12-20T15:32:44.124Z,99668.59
2018-12-20T15:35:12.532Z,99673.44
2018-12-20T15:37:40.931Z,99678.84
2018-12-20T15:40:10.001Z,99674.56
2018-12-20T15:42:38.786Z,99670.52
2018-12-20T15:45:08.572Z,99676.44
2018-12-20T15:47:37.015Z,99677.80
2018-12-20T15:50:06.763Z,99677.72
2018-12-20T15:52:35.147Z,99678.81
2018-12-20T15:55:03.708Z,99686.34
2018-12-20T15:57:32.112Z,99681.50
2018-12-20T16:00:00.489Z,99687.13
2018-12-20T16:02:28.919Z,99685.26
2018-12-20T16:04:57.304Z,99682.81
2018-12-20T16:07:25.695Z,99682.27
2018-12-20T16:09:54.043Z,99680.64
2018-12-20T16:12:22.439Z,99680.83
2018-12-20T16:14:50.895Z,99688.41
2018-12-20T16:17:19.297Z,99689.16
2018-12-20T16:19:47.663Z,99691.11
2018-12-20T16:22:16.027Z,99696.21
2018-12-20T16:24:44.416Z,99698.61
2018-12-20T16:27:12.788Z,99707.02
2018-12-20T16:29:41.447Z,99706.45
2018-12-20T16:32:09.816Z,99709.91
2018-12-20T16:34:38.288Z,99702.55
2018-12-20T16:37:06.691Z,99710.39
2018-12-20T16:39:35.096Z,99713.61
2018-12-20T16:42:03.605Z,99716.12
2018-12-20T16:44:32.027Z,99714.17
2018-12-20T16:47:00.403Z,99717.70
2018-12-20T16:49:28.796Z,99721.49
2018-12-20T16:51:57.152Z,99722.55
2018-12-20T16:54:25.636Z,99721.45
2018-12-20T16:56:54.019Z,99724.77
2018-12-20T16:59:22.405Z,99717.56
2018-12-20T17:01:50.773Z,99715.58
2018-12-20T17:04:19.167Z,99718.49
2018-12-20T17:06:48.139Z,99720.41
2018-12-20T17:09:16.741Z,99723.06
2018-12-20T17:11:45.204Z,99724.46
2018-12-20T17:14:13.628Z,99723.62
2018-12-20T17:16:42.035Z,99723.89
2018-12-20T17:19:10.420Z,99723.37
2018-12-20T17:21:38.867Z,99723.37
2018-12-20T17:24:07.253Z,99730.65
2018-12-20T17:33:33.888Z,99733.56
2018-12-20T17:36:02.415Z,99733.69
2018-12-20T17:38:30.808Z,99731.22
2018-12-20T17:40:59.192Z,99735.56
2018-12-20T17:43:34.256Z,99733.73
2018-12-20T17:46:02.680Z,99735.34
2018-12-20T17:48:31.083Z,99730.98
2018-12-20T17:50:59.458Z,99731.28
2018-12-20T17:53:28.247Z,99726.34
2018-12-20T17:55:56.615Z,99718.49
2018-12-20T17:58:25.048Z,99712.25
2018-12-20T18:00:53.447Z,99719.23
2018-12-20T18:03:21.918Z,99716.30
2018-12-20T18:05:50.423Z,99726.52
2018-12-20T18:08:18.808Z,99727.55
2018-12-20T18:10:47.453Z,99722.06
2018-12-20T18:13:15.924Z,99725.38
2018-12-20T18:15:44.351Z,99722.45
2018-12-20T18:18:12.806Z,99730.12
2018-12-20T18:20:41.215Z,99734.48
2018-12-20T18:23:09.605Z,99731.78
2018-12-20T18:25:38.064Z,99736.73
2018-12-20T18:28:06.443Z,99736.73
2018-12-20T18:30:34.843Z,99735.00
2018-12-20T18:33:03.247Z,99726.37
2018-12-20T18:35:31.683Z,99723.52
2018-12-20T18:38:00.055Z,99726.48
2018-12-20T18:40:28.463Z,99729.48
2018-12-20T18:42:56.877Z,99724.92
2018-12-20T18:45:25.340Z,99731.97
2018-12-20T18:47:53.789Z,99730.55
2018-12-20T18:50:22.279Z,99736.02
2018-12-20T18:52:50.780Z,99732.28
2018-12-20T18:55:19.286Z,99729.23
2018-12-20T18:57:48.240Z,99732.42
2018-12-20T19:00:16.728Z,99730.06
2018-12-20T19:02:45.115Z,99730.28
2018-12-20T19:05:13.542Z,99732.34
2018-12-20T19:07:49.851Z,99731.73
2018-12-20T19:10:18.925Z,99722.55
2018-12-20T19:12:47.720Z,99733.91
2018-12-20T19:15:16.579Z,99735.00
2018-12-20T19:17:45.408Z,99726.97
2018-12-20T19:20:16.388Z,99727.73
2018-12-20T19:22:46.218Z,99727.02
2018-12-20T19:25:15.215Z,99735.68
2018-12-20T19:27:44.858Z,99735.77
2018-12-20T19:30:13.576Z,99742.00
2018-12-20T19:32:42.370Z,99736.59
2018-12-20T19:35:10.776Z,99735.42
2018-12-20T19:37:39.914Z,99729.48
2018-12-20T19:40:11.047Z,99729.41
2018-12-20T19:42:39.904Z,99728.81
2018-12-20T19:45:08.803Z,99734.73
2018-12-20T19:47:37.739Z,99739.62
2018-12-20T19:50:08.261Z,99738.97
2018-12-20T19:52:36.641Z,99733.56
2018-12-20T19:55:06.877Z,99737.30
2018-12-20T19:57:35.307Z,99737.03
2018-12-20T20:00:06.326Z,99732.19
2018-12-20T20:02:35.168Z,99737.34
2018-12-20T20:05:04.341Z,99739.00
2018-12-20T20:07:32.780Z,99741.09
2018-12-20T20:10:01.350Z,99734.11
2018-12-20T20:12:29.758Z,99733.59
2018-12-20T20:14:58.158Z,99739.13
2018-12-20T20:17:26.592Z,99740.78
2018-12-20T20:19:59.715Z,99734.89
2018-12-20T20:22:25.972Z,99725.25
2018-12-20T20:24:54.382Z,99721.34
2018-12-20T20:27:22.780Z,99711.63
2018-12-20T20:29:51.166Z,99716.29
2018-12-20T20:32:19.883Z,99720.52
2018-12-20T20:34:48.275Z,99715.84
2018-12-20T20:37:16.765Z,99714.19
2018-12-20T20:39:45.277Z,99713.92
2018-12-20T20:42:13.741Z,99718.81
2018-12-20T20:44:42.627Z,99717.53
2018-12-20T20:47:12.096Z,99715.58
2018-12-20T20:49:40.483Z,99709.83
2018-12-20T20:52:08.975Z,99712.58
2018-12-20T20:54:37.424Z,99707.62
2018-12-20T20:57:05.882Z,99712.72
2018-12-20T20:59:34.335Z,99718.12
2018-12-20T21:02:02.800Z,99723.57
2018-12-20T21:04:31.719Z,99732.98
2018-12-20T21:07:00.547Z,99731.03
2018-12-20T21:09:30.604Z,99739.39
2018-12-20T21:11:59.248Z,99738.79
2018-12-20T21:14:28.643Z,99739.62
2018-12-20T21:16:57.120Z,99730.76
2018-12-20T21:19:25.608Z,99738.69
2018-12-20T21:21:54.259Z,99731.75
2018-12-20T21:24:22.791Z,99729.58
2018-12-20T21:26:51.223Z,99730.62
2018-12-20T21:29:19.668Z,99729.92
2018-12-20T21:31:48.098Z,99727.92
2018-12-20T21:34:16.500Z,99727.96
2018-12-20T21:36:45.105Z,99734.45
2018-12-20T21:39:13.515Z,99727.36
2018-12-20T21:41:41.933Z,99729.05
2018-12-20T21:44:10.353Z,99730.48
2018-12-20T21:46:38.936Z,99731.19
2018-12-20T21:49:07.323Z,99723.79
2018-12-20T21:51:35.755Z,99723.62
2018-12-20T21:54:04.199Z,99721.33
2018-12-20T21:56:32.660Z,99724.11
2018-12-20T21:59:01.047Z,99730.04
2018-12-20T22:01:29.516Z,99733.21
2018-12-20T22:03:57.902Z,99734.74
2018-12-20T22:06:26.334Z,99740.84
2018-12-20T22:08:54.827Z,99730.50
2018-12-20T22:11:23.210Z,99735.68
2018-12-20T22:13:51.866Z,99740.83
2018-12-20T22:16:20.315Z,99743.61
2018-12-20T22:18:48.706Z,99724.88
2018-12-20T22:21:17.255Z,99719.52
2018-12-20T22:23:45.765Z,99729.35
2018-12-20T22:26:14.199Z,99728.56
2018-12-20T22:28:42.724Z,99733.11
2018-12-20T22:31:11.088Z,99728.83
2018-12-20T22:33:39.507Z,99737.16
2018-12-20T22:36:07.923Z,99736.81
2018-12-20T22:38:36.323Z,99739.52
2018-12-20T22:41:04.743Z,99738.73
2018-12-20T22:43:33.172Z,99746.34
2018-12-20T22:46:01.597Z,99749.80
2018-12-20T22:48:30.016Z,99738.24
2018-12-20T22:50:58.413Z,99750.36
2018-12-20T22:53:26.812Z,99754.59
2018-12-20T22:55:55.215Z,99753.47
2018-12-20T22:58:23.643Z,99744.58
2018-12-20T23:00:54.239Z,99751.94
2018-12-20T23:03:22.991Z,99743.34
2018-12-20T23:05:51.359Z,99745.92
2018-12-20T23:08:19.829Z,99746.38
2018-12-20T23:10:48.222Z,99737.40
2018-12-20T23:13:16.613Z,99724.98
2018-12-20T23:15:45.059Z,99722.46
2018-12-20T23:18:13.500Z,99726.81
2018-12-20T23:20:41.924Z,99714.13
2018-12-20T23:23:10.406Z,99722.19
2018-12-20T23:25:38.868Z,99715.66
2018-12-20T23:28:07.292Z,99707.73
2018-12-20T23:30:35.667Z,99701.86
2018-12-20T23:33:04.061Z,99699.33
2018-12-20T23:35:32.465Z,99696.63
2018-12-20T23:38:00.876Z,99688.97
2018-12-20T23:40:29.233Z,99688.84
2018-12-20T23:42:57.637Z,99681.33
2018-12-20T23:45:26.038Z,99684.16
2018-12-20T23:47:54.419Z,99678.31
2018-12-20T23:50:22.797Z,99682.78
2018-12-20T23:52:51.198Z,99691.11
2018-12-20T23:55:19.616Z,99691.11
2018-12-20T23:57:47.996Z,99678.23
